sensor_id;sensor_type;location;lat;lon;timestamp;temperature;humidity
610;DHT22;292;48.800;9.216;2023-04-01T00:02:25;11.50;72.60
610;DHT22;292;48.800;9.216;2023-04-01T00:04:52;11.50;72.60
610;DHT22;292;48.800;9.216;2023-04-01T00:07:22;11.50;72.50
610;DHT22;292;48.800;9.216;2023-04-01T00:09:53;11.50;72.50
610;DHT22;292;48.800;9.216;2023-04-01T00:12:22;11.50;72.60
610;DHT22;292;48.800;9.216;2023-04-01T00:14:51;11.50;72.60
610;DHT22;292;48.800;9.216;2023-04-01T00:17:19;11.50;72.80
610;DHT22;292;48.800;9.216;2023-04-01T00:19:47;11.40;72.90
610;DHT22;292;48.800;9.216;2023-04-01T00:22:14;11.40;73.10
610;DHT22;292;48.800;9.216;2023-04-01T00:24:42;11.40;73.20
610;DHT22;292;48.800;9.216;2023-04-01T00:27:11;11.40;73.20
610;DHT22;292;48.800;9.216;2023-04-01T00:29:41;11.40;73.20
610;DHT22;292;48.800;9.216;2023-04-01T00:32:10;11.50;73.20
610;DHT22;292;48.800;9.216;2023-04-01T00:34:37;11.50;73.20
610;DHT22;292;48.800;9.216;2023-04-01T00:37:06;11.50;73.40
610;DHT22;292;48.800;9.216;2023-04-01T00:39:34;11.50;73.20
610;DHT22;292;48.800;9.216;2023-04-01T00:42:03;11.50;73.20
610;DHT22;292;48.800;9.216;2023-04-01T00:44:33;11.50;73.10
610;DHT22;292;48.800;9.216;2023-04-01T00:47:01;11.50;73.10
610;DHT22;292;48.800;9.216;2023-04-01T00:49:31;11.50;73.10
610;DHT22;292;48.800;9.216;2023-04-01T00:52:02;11.50;73.10
610;DHT22;292;48.800;9.216;2023-04-01T00:54:30;11.50;73.10
610;DHT22;292;48.800;9.216;2023-04-01T00:56:59;11.50;73.10
610;DHT22;292;48.800;9.216;2023-04-01T00:59:29;11.50;73.20
610;DHT22;292;48.800;9.216;2023-04-01T01:01:59;11.50;73.40
610;DHT22;292;48.800;9.216;2023-04-01T01:04:28;11.50;73.40
610;DHT22;292;48.800;9.216;2023-04-01T01:07:05;11.50;73.50
610;DHT22;292;48.800;9.216;2023-04-01T01:09:43;11.50;73.70
610;DHT22;292;48.800;9.216;2023-04-01T01:12:14;11.50;73.70
610;DHT22;292;48.800;9.216;2023-04-01T01:14:54;11.50;73.80
610;DHT22;292;48.800;9.216;2023-04-01T01:17:33;11.50;73.90
610;DHT22;292;48.800;9.216;2023-04-01T01:20:46;11.50;74.10
610;DHT22;292;48.800;9.216;2023-04-01T01:26:56;11.50;74.40
610;DHT22;292;48.800;9.216;2023-04-01T01:29:44;11.50;74.50
610;DHT22;292;48.800;9.216;2023-04-01T01:32:27;11.40;74.70
610;DHT22;292;48.800;9.216;2023-04-01T01:35:06;11.40;74.70
610;DHT22;292;48.800;9.216;2023-04-01T01:37:34;11.40;74.70
610;DHT22;292;48.800;9.216;2023-04-01T01:40:04;11.40;75.00
610;DHT22;292;48.800;9.216;2023-04-01T01:42:35;11.40;74.80
610;DHT22;292;48.800;9.216;2023-04-01T01:45:05;11.40;75.00
610;DHT22;292;48.800;9.216;2023-04-01T01:47:36;11.40;75.00
610;DHT22;292;48.800;9.216;2023-04-01T01:50:07;11.40;75.10
610;DHT22;292;48.800;9.216;2023-04-01T01:52:35;11.40;75.20
610;DHT22;292;48.800;9.216;2023-04-01T01:55:03;11.40;75.20
610;DHT22;292;48.800;9.216;2023-04-01T01:57:32;11.40;75.40
610;DHT22;292;48.800;9.216;2023-04-01T02:00:04;11.40;75.50
610;DHT22;292;48.800;9.216;2023-04-01T02:02:39;11.40;75.70
610;DHT22;292;48.800;9.216;2023-04-01T02:05:17;11.30;75.80
610;DHT22;292;48.800;9.216;2023-04-01T02:07:49;11.30;76.00
610;DHT22;292;48.800;9.216;2023-04-01T02:10:21;11.40;76.10
610;DHT22;292;48.800;9.216;2023-04-01T02:12:50;11.40;76.20
610;DHT22;292;48.800;9.216;2023-04-01T02:15:20;11.40;76.20
610;DHT22;292;48.800;9.216;2023-04-01T02:17:48;11.30;76.40
610;DHT22;292;48.800;9.216;2023-04-01T02:20:20;11.40;76.40
610;DHT22;292;48.800;9.216;2023-04-01T02:22:50;11.30;76.70
610;DHT22;292;48.800;9.216;2023-04-01T02:25:22;11.30;76.40
610;DHT22;292;48.800;9.216;2023-04-01T02:27:55;11.40;76.40
610;DHT22;292;48.800;9.216;2023-04-01T02:30:27;11.40;76.20
610;DHT22;292;48.800;9.216;2023-04-01T02:32:58;11.30;76.40
610;DHT22;292;48.800;9.216;2023-04-01T02:35:27;11.40;76.40
610;DHT22;292;48.800;9.216;2023-04-01T02:37:54;11.40;76.40
610;DHT22;292;48.800;9.216;2023-04-01T02:40:22;11.30;76.40
610;DHT22;292;48.800;9.216;2023-04-01T02:42:49;11.30;76.40
610;DHT22;292;48.800;9.216;2023-04-01T02:45:18;11.30;76.10
610;DHT22;292;48.800;9.216;2023-04-01T02:47:45;11.20;76.10
610;DHT22;292;48.800;9.216;2023-04-01T02:50:12;11.30;76.10
610;DHT22;292;48.800;9.216;2023-04-01T02:52:41;11.30;76.10
610;DHT22;292;48.800;9.216;2023-04-01T02:55:09;11.20;76.00
610;DHT22;292;48.800;9.216;2023-04-01T02:57:37;11.20;75.80
610;DHT22;292;48.800;9.216;2023-04-01T03:00:06;11.20;75.70
610;DHT22;292;48.800;9.216;2023-04-01T03:02:37;11.20;75.50
610;DHT22;292;48.800;9.216;2023-04-01T03:05:05;11.20;75.50
610;DHT22;292;48.800;9.216;2023-04-01T03:07:33;11.10;75.40
610;DHT22;292;48.800;9.216;2023-04-01T03:10:04;11.10;75.20
610;DHT22;292;48.800;9.216;2023-04-01T03:12:32;11.10;75.20
610;DHT22;292;48.800;9.216;2023-04-01T03:14:59;11.00;75.40
610;DHT22;292;48.800;9.216;2023-04-01T03:17:26;11.00;75.20
610;DHT22;292;48.800;9.216;2023-04-01T03:19:53;11.00;75.20
610;DHT22;292;48.800;9.216;2023-04-01T03:22:20;11.00;75.10
610;DHT22;292;48.800;9.216;2023-04-01T03:24:48;11.00;74.80
610;DHT22;292;48.800;9.216;2023-04-01T03:27:17;11.00;75.00
610;DHT22;292;48.800;9.216;2023-04-01T03:29:46;11.00;75.00
610;DHT22;292;48.800;9.216;2023-04-01T03:32:13;11.00;75.00
610;DHT22;292;48.800;9.216;2023-04-01T03:34:41;10.90;74.80
610;DHT22;292;48.800;9.216;2023-04-01T03:37:08;10.90;74.80
610;DHT22;292;48.800;9.216;2023-04-01T03:39:36;10.90;74.80
610;DHT22;292;48.800;9.216;2023-04-01T03:42:03;10.90;74.80
610;DHT22;292;48.800;9.216;2023-04-01T03:44:34;10.90;74.80
610;DHT22;292;48.800;9.216;2023-04-01T03:47:01;10.90;74.80
610;DHT22;292;48.800;9.216;2023-04-01T03:49:28;10.90;74.70
610;DHT22;292;48.800;9.216;2023-04-01T03:51:55;10.90;74.50
610;DHT22;292;48.800;9.216;2023-04-01T03:54:22;10.90;74.50
610;DHT22;292;48.800;9.216;2023-04-01T03:56:49;10.90;74.50
610;DHT22;292;48.800;9.216;2023-04-01T03:59:16;10.90;74.40
610;DHT22;292;48.800;9.216;2023-04-01T04:01:46;10.90;74.20
610;DHT22;292;48.800;9.216;2023-04-01T04:04:13;10.90;74.20
610;DHT22;292;48.800;9.216;2023-04-01T04:06:40;10.90;74.10
610;DHT22;292;48.800;9.216;2023-04-01T04:09:08;10.90;73.90
610;DHT22;292;48.800;9.216;2023-04-01T04:11:35;10.90;73.80
610;DHT22;292;48.800;9.216;2023-04-01T04:14:02;10.90;73.70
610;DHT22;292;48.800;9.216;2023-04-01T04:16:29;10.90;73.40
610;DHT22;292;48.800;9.216;2023-04-01T04:18:58;10.80;73.20
610;DHT22;292;48.800;9.216;2023-04-01T04:21:25;10.80;72.90
610;DHT22;292;48.800;9.216;2023-04-01T04:23:55;10.80;72.90
610;DHT22;292;48.800;9.216;2023-04-01T04:26:22;10.80;72.80
610;DHT22;292;48.800;9.216;2023-04-01T04:28:53;10.70;72.80
610;DHT22;292;48.800;9.216;2023-04-01T04:31:22;10.70;72.80
610;DHT22;292;48.800;9.216;2023-04-01T04:33:50;10.70;72.80
610;DHT22;292;48.800;9.216;2023-04-01T04:36:22;10.70;72.60
610;DHT22;292;48.800;9.216;2023-04-01T04:38:51;10.70;72.60
610;DHT22;292;48.800;9.216;2023-04-01T04:41:18;10.70;72.60
610;DHT22;292;48.800;9.216;2023-04-01T04:43:59;10.70;72.60
610;DHT22;292;48.800;9.216;2023-04-01T04:46:26;10.70;72.50
610;DHT22;292;48.800;9.216;2023-04-01T04:48:53;10.60;72.50
610;DHT22;292;48.800;9.216;2023-04-01T04:51:22;10.60;72.60
610;DHT22;292;48.800;9.216;2023-04-01T04:53:50;10.60;72.60
610;DHT22;292;48.800;9.216;2023-04-01T04:56:19;10.60;72.90
610;DHT22;292;48.800;9.216;2023-04-01T04:58:47;10.50;73.10
610;DHT22;292;48.800;9.216;2023-04-01T05:01:15;10.50;73.20
610;DHT22;292;48.800;9.216;2023-04-01T05:03:43;10.50;73.40
610;DHT22;292;48.800;9.216;2023-04-01T05:06:12;10.50;73.50
610;DHT22;292;48.800;9.216;2023-04-01T05:08:41;10.50;73.90
610;DHT22;292;48.800;9.216;2023-04-01T05:11:11;10.50;74.10
610;DHT22;292;48.800;9.216;2023-04-01T05:13:39;10.50;74.10
610;DHT22;292;48.800;9.216;2023-04-01T05:16:08;10.40;74.20
610;DHT22;292;48.800;9.216;2023-04-01T05:18:36;10.40;74.40
610;DHT22;292;48.800;9.216;2023-04-01T05:21:03;10.40;74.50
610;DHT22;292;48.800;9.216;2023-04-01T05:23:31;10.40;74.70
610;DHT22;292;48.800;9.216;2023-04-01T05:26:03;10.40;74.70
610;DHT22;292;48.800;9.216;2023-04-01T05:28:31;10.50;74.70
610;DHT22;292;48.800;9.216;2023-04-01T05:31:00;10.50;74.70
610;DHT22;292;48.800;9.216;2023-04-01T05:33:28;10.50;74.70
610;DHT22;292;48.800;9.216;2023-04-01T05:35:55;10.50;74.70
610;DHT22;292;48.800;9.216;2023-04-01T05:38:23;10.50;74.70
610;DHT22;292;48.800;9.216;2023-04-01T05:40:50;10.50;74.80
610;DHT22;292;48.800;9.216;2023-04-01T05:43:19;10.60;74.80
610;DHT22;292;48.800;9.216;2023-04-01T05:45:47;10.60;74.80
610;DHT22;292;48.800;9.216;2023-04-01T05:48:15;10.60;74.70
610;DHT22;292;48.800;9.216;2023-04-01T05:50:42;10.70;74.70
610;DHT22;292;48.800;9.216;2023-04-01T05:53:10;10.70;74.70
610;DHT22;292;48.800;9.216;2023-04-01T05:55:37;10.70;74.50
610;DHT22;292;48.800;9.216;2023-04-01T05:58:04;10.80;74.50
610;DHT22;292;48.800;9.216;2023-04-01T06:00:35;10.80;74.40
610;DHT22;292;48.800;9.216;2023-04-01T06:03:07;10.80;74.10
610;DHT22;292;48.800;9.216;2023-04-01T06:05:39;10.90;74.10
610;DHT22;292;48.800;9.216;2023-04-01T06:08:11;10.90;73.90
610;DHT22;292;48.800;9.216;2023-04-01T06:10:48;11.00;73.80
610;DHT22;292;48.800;9.216;2023-04-01T06:13:29;11.00;73.50
610;DHT22;292;48.800;9.216;2023-04-01T06:16:09;11.10;73.10
610;DHT22;292;48.800;9.216;2023-04-01T06:18:56;11.10;72.80
610;DHT22;292;48.800;9.216;2023-04-01T06:24:42;11.10;72.40
610;DHT22;292;48.800;9.216;2023-04-01T06:27:20;11.20;71.90
610;DHT22;292;48.800;9.216;2023-04-01T06:30:02;11.20;71.50
610;DHT22;292;48.800;9.216;2023-04-01T06:33:02;11.20;71.30
610;DHT22;292;48.800;9.216;2023-04-01T06:35:42;11.30;71.10
610;DHT22;292;48.800;9.216;2023-04-01T06:38:30;11.30;70.80
610;DHT22;292;48.800;9.216;2023-04-01T06:41:26;11.40;70.60
610;DHT22;292;48.800;9.216;2023-04-01T06:44:07;11.40;70.50
610;DHT22;292;48.800;9.216;2023-04-01T06:46:44;11.50;70.00
610;DHT22;292;48.800;9.216;2023-04-01T06:49:32;11.40;70.00
610;DHT22;292;48.800;9.216;2023-04-01T06:52:05;11.50;69.90
610;DHT22;292;48.800;9.216;2023-04-01T06:54:38;11.50;69.90
610;DHT22;292;48.800;9.216;2023-04-01T06:57:18;11.50;69.80
610;DHT22;292;48.800;9.216;2023-04-01T06:59:47;11.60;69.60
610;DHT22;292;48.800;9.216;2023-04-01T07:02:22;11.50;69.50
610;DHT22;292;48.800;9.216;2023-04-01T07:04:54;11.50;69.50
610;DHT22;292;48.800;9.216;2023-04-01T07:07:29;11.60;69.60
610;DHT22;292;48.800;9.216;2023-04-01T07:09:59;11.60;69.50
610;DHT22;292;48.800;9.216;2023-04-01T07:12:36;11.60;69.50
610;DHT22;292;48.800;9.216;2023-04-01T07:15:15;11.60;69.50
610;DHT22;292;48.800;9.216;2023-04-01T07:17:48;11.60;69.50
610;DHT22;292;48.800;9.216;2023-04-01T07:20:24;11.60;69.30
610;DHT22;292;48.800;9.216;2023-04-01T07:22:56;11.60;69.50
610;DHT22;292;48.800;9.216;2023-04-01T07:25:28;11.60;69.60
610;DHT22;292;48.800;9.216;2023-04-01T07:28:01;11.70;69.80
610;DHT22;292;48.800;9.216;2023-04-01T07:30:43;11.70;69.80
610;DHT22;292;48.800;9.216;2023-04-01T07:33:15;11.70;69.80
610;DHT22;292;48.800;9.216;2023-04-01T07:35:48;11.70;69.80
610;DHT22;292;48.800;9.216;2023-04-01T07:38:26;11.70;69.90
610;DHT22;292;48.800;9.216;2023-04-01T07:41:06;11.70;69.90
610;DHT22;292;48.800;9.216;2023-04-01T07:43:52;11.70;69.90
610;DHT22;292;48.800;9.216;2023-04-01T07:46:44;11.70;69.90
610;DHT22;292;48.800;9.216;2023-04-01T07:49:16;11.70;69.90
610;DHT22;292;48.800;9.216;2023-04-01T07:51:52;11.70;69.90
610;DHT22;292;48.800;9.216;2023-04-01T07:54:30;11.70;69.90
610;DHT22;292;48.800;9.216;2023-04-01T07:57:05;11.70;69.90
610;DHT22;292;48.800;9.216;2023-04-01T07:59:40;11.70;70.00
610;DHT22;292;48.800;9.216;2023-04-01T08:02:20;11.70;69.90
610;DHT22;292;48.800;9.216;2023-04-01T08:04:58;11.80;69.90
610;DHT22;292;48.800;9.216;2023-04-01T08:07:36;11.80;69.90
610;DHT22;292;48.800;9.216;2023-04-01T08:10:13;11.80;69.80
610;DHT22;292;48.800;9.216;2023-04-01T08:12:51;11.80;69.60
610;DHT22;292;48.800;9.216;2023-04-01T08:15:27;11.90;69.80
610;DHT22;292;48.800;9.216;2023-04-01T08:18:04;11.90;69.60
610;DHT22;292;48.800;9.216;2023-04-01T08:20:37;11.90;69.60
610;DHT22;292;48.800;9.216;2023-04-01T08:23:12;11.90;69.60
610;DHT22;292;48.800;9.216;2023-04-01T08:25:44;11.90;69.60
610;DHT22;292;48.800;9.216;2023-04-01T08:28:19;12.00;69.60
610;DHT22;292;48.800;9.216;2023-04-01T08:30:50;12.00;69.60
610;DHT22;292;48.800;9.216;2023-04-01T08:33:22;12.00;69.60
610;DHT22;292;48.800;9.216;2023-04-01T08:35:54;12.00;69.60
610;DHT22;292;48.800;9.216;2023-04-01T08:38:28;12.10;69.60
610;DHT22;292;48.800;9.216;2023-04-01T08:41:00;12.10;69.90
610;DHT22;292;48.800;9.216;2023-04-01T08:43:53;12.10;70.00
610;DHT22;292;48.800;9.216;2023-04-01T08:49:44;12.10;70.80
610;DHT22;292;48.800;9.216;2023-04-01T08:52:23;12.10;71.20
610;DHT22;292;48.800;9.216;2023-04-01T08:55:30;12.10;71.30
610;DHT22;292;48.800;9.216;2023-04-01T08:58:22;12.10;71.80
610;DHT22;292;48.800;9.216;2023-04-01T09:00:57;12.10;72.10
610;DHT22;292;48.800;9.216;2023-04-01T09:03:48;12.00;72.50
610;DHT22;292;48.800;9.216;2023-04-01T09:06:37;11.90;72.90
610;DHT22;292;48.800;9.216;2023-04-01T09:09:40;11.80;72.90
610;DHT22;292;48.800;9.216;2023-04-01T09:15:30;11.70;73.40
610;DHT22;292;48.800;9.216;2023-04-01T09:18:27;11.60;73.80
610;DHT22;292;48.800;9.216;2023-04-01T09:21:36;11.60;73.80
610;DHT22;292;48.800;9.216;2023-04-01T09:24:40;11.60;74.10
610;DHT22;292;48.800;9.216;2023-04-01T09:27:27;11.60;74.10
610;DHT22;292;48.800;9.216;2023-04-01T09:36:22;11.60;73.80
610;DHT22;292;48.800;9.216;2023-04-01T09:38:58;11.60;73.80
610;DHT22;292;48.800;9.216;2023-04-01T09:41:30;11.70;73.40
610;DHT22;292;48.800;9.216;2023-04-01T09:44:04;11.70;73.20
610;DHT22;292;48.800;9.216;2023-04-01T09:46:55;11.80;73.50
610;DHT22;292;48.800;9.216;2023-04-01T09:52:37;12.00;73.50
610;DHT22;292;48.800;9.216;2023-04-01T09:55:18;12.00;73.10
610;DHT22;292;48.800;9.216;2023-04-01T10:01:13;12.10;72.60
610;DHT22;292;48.800;9.216;2023-04-01T10:07:32;12.10;71.60
610;DHT22;292;48.800;9.216;2023-04-01T10:10:39;12.10;71.60
610;DHT22;292;48.800;9.216;2023-04-01T10:13:39;12.10;71.50
610;DHT22;292;48.800;9.216;2023-04-01T10:16:45;12.10;71.20
610;DHT22;292;48.800;9.216;2023-04-01T10:25:45;12.10;69.60
610;DHT22;292;48.800;9.216;2023-04-01T10:28:50;12.10;69.60
610;DHT22;292;48.800;9.216;2023-04-01T10:31:50;12.10;69.30
610;DHT22;292;48.800;9.216;2023-04-01T10:37:43;12.20;68.60
610;DHT22;292;48.800;9.216;2023-04-01T10:40:52;12.20;68.70
610;DHT22;292;48.800;9.216;2023-04-01T10:43:57;12.20;68.70
610;DHT22;292;48.800;9.216;2023-04-01T10:49:44;12.30;68.90
610;DHT22;292;48.800;9.216;2023-04-01T11:01:34;12.40;67.70
610;DHT22;292;48.800;9.216;2023-04-01T11:04:47;12.40;67.70
610;DHT22;292;48.800;9.216;2023-04-01T11:07:50;12.40;67.60
610;DHT22;292;48.800;9.216;2023-04-01T11:13:41;12.50;67.90
610;DHT22;292;48.800;9.216;2023-04-01T11:19:57;12.50;68.20
610;DHT22;292;48.800;9.216;2023-04-01T11:22:58;12.60;67.90
610;DHT22;292;48.800;9.216;2023-04-01T11:26:09;12.60;67.30
610;DHT22;292;48.800;9.216;2023-04-01T11:31:58;12.60;66.30
610;DHT22;292;48.800;9.216;2023-04-01T11:34:50;12.60;65.30
610;DHT22;292;48.800;9.216;2023-04-01T11:37:33;12.60;65.60
610;DHT22;292;48.800;9.216;2023-04-01T11:40:12;12.60;65.60
610;DHT22;292;48.800;9.216;2023-04-01T11:42:46;12.70;65.40
610;DHT22;292;48.800;9.216;2023-04-01T11:45:25;12.80;65.00
610;DHT22;292;48.800;9.216;2023-04-01T11:48:20;12.90;65.30
610;DHT22;292;48.800;9.216;2023-04-01T11:51:09;13.00;65.10
610;DHT22;292;48.800;9.216;2023-04-01T11:53:47;13.00;64.70
610;DHT22;292;48.800;9.216;2023-04-01T11:56:46;13.10;64.60
610;DHT22;292;48.800;9.216;2023-04-01T12:02:23;13.20;64.10
610;DHT22;292;48.800;9.216;2023-04-01T12:05:03;13.30;63.60
610;DHT22;292;48.800;9.216;2023-04-01T12:07:57;13.30;63.30
610;DHT22;292;48.800;9.216;2023-04-01T12:10:37;13.30;63.40
610;DHT22;292;48.800;9.216;2023-04-01T12:13:14;13.30;63.40
610;DHT22;292;48.800;9.216;2023-04-01T12:15:57;13.20;63.40
610;DHT22;292;48.800;9.216;2023-04-01T12:18:33;13.20;63.80
610;DHT22;292;48.800;9.216;2023-04-01T12:21:14;13.20;64.00
610;DHT22;292;48.800;9.216;2023-04-01T12:23:56;13.20;64.30
610;DHT22;292;48.800;9.216;2023-04-01T12:26:39;13.10;64.90
610;DHT22;292;48.800;9.216;2023-04-01T12:32:20;13.00;65.90
610;DHT22;292;48.800;9.216;2023-04-01T12:37:44;13.00;66.30
610;DHT22;292;48.800;9.216;2023-04-01T12:40:24;13.10;66.40
610;DHT22;292;48.800;9.216;2023-04-01T12:43:23;13.10;66.30
610;DHT22;292;48.800;9.216;2023-04-01T12:46:00;13.20;66.20
610;DHT22;292;48.800;9.216;2023-04-01T12:49:01;13.20;65.60
610;DHT22;292;48.800;9.216;2023-04-01T12:51:44;13.20;64.90
610;DHT22;292;48.800;9.216;2023-04-01T12:54:44;13.30;64.40
610;DHT22;292;48.800;9.216;2023-04-01T12:57:28;13.40;63.40
610;DHT22;292;48.800;9.216;2023-04-01T13:00:18;13.40;63.10
610;DHT22;292;48.800;9.216;2023-04-01T13:03:02;13.40;63.30
610;DHT22;292;48.800;9.216;2023-04-01T13:05:50;13.40;63.10
610;DHT22;292;48.800;9.216;2023-04-01T13:08:32;13.40;63.10
610;DHT22;292;48.800;9.216;2023-04-01T13:11:08;13.50;63.00
610;DHT22;292;48.800;9.216;2023-04-01T13:16:46;13.50;62.30
610;DHT22;292;48.800;9.216;2023-04-01T13:19:23;13.40;62.10
610;DHT22;292;48.800;9.216;2023-04-01T13:21:56;13.40;62.40
610;DHT22;292;48.800;9.216;2023-04-01T13:24:35;13.30;62.70
610;DHT22;292;48.800;9.216;2023-04-01T13:27:09;13.30;62.40
610;DHT22;292;48.800;9.216;2023-04-01T13:29:43;13.30;62.00
610;DHT22;292;48.800;9.216;2023-04-01T13:32:25;13.30;62.10
610;DHT22;292;48.800;9.216;2023-04-01T13:35:08;13.30;62.30
610;DHT22;292;48.800;9.216;2023-04-01T13:37:50;13.40;62.30
610;DHT22;292;48.800;9.216;2023-04-01T13:40:36;13.40;62.50
610;DHT22;292;48.800;9.216;2023-04-01T13:43:13;13.40;62.50
610;DHT22;292;48.800;9.216;2023-04-01T13:45:53;13.50;62.30
610;DHT22;292;48.800;9.216;2023-04-01T13:48:35;13.50;62.00
610;DHT22;292;48.800;9.216;2023-04-01T13:51:22;13.60;61.80
610;DHT22;292;48.800;9.216;2023-04-01T13:54:20;13.60;61.80
610;DHT22;292;48.800;9.216;2023-04-01T13:57:00;13.60;61.50
610;DHT22;292;48.800;9.216;2023-04-01T14:02:50;13.60;61.50
610;DHT22;292;48.800;9.216;2023-04-01T14:05:39;13.60;61.40
610;DHT22;292;48.800;9.216;2023-04-01T14:08:20;13.60;61.40
610;DHT22;292;48.800;9.216;2023-04-01T14:11:01;13.60;61.40
610;DHT22;292;48.800;9.216;2023-04-01T14:13:34;13.70;61.20
610;DHT22;292;48.800;9.216;2023-04-01T14:19:08;13.70;61.40
610;DHT22;292;48.800;9.216;2023-04-01T14:21:42;13.70;61.00
610;DHT22;292;48.800;9.216;2023-04-01T14:24:42;13.70;60.80
610;DHT22;292;48.800;9.216;2023-04-01T14:27:34;13.70;61.00
610;DHT22;292;48.800;9.216;2023-04-01T14:30:20;13.70;61.10
610;DHT22;292;48.800;9.216;2023-04-01T14:32:58;13.70;61.40
610;DHT22;292;48.800;9.216;2023-04-01T14:35:35;13.60;61.20
610;DHT22;292;48.800;9.216;2023-04-01T14:38:28;13.50;62.00
610;DHT22;292;48.800;9.216;2023-04-01T14:41:06;13.40;62.50
610;DHT22;292;48.800;9.216;2023-04-01T14:50:08;13.20;64.00
610;DHT22;292;48.800;9.216;2023-04-01T14:52:39;13.30;63.70
610;DHT22;292;48.800;9.216;2023-04-01T14:55:21;13.20;63.60
610;DHT22;292;48.800;9.216;2023-04-01T14:58:08;13.20;63.40
610;DHT22;292;48.800;9.216;2023-04-01T15:00:48;13.20;63.40
610;DHT22;292;48.800;9.216;2023-04-01T15:03:20;13.10;63.70
610;DHT22;292;48.800;9.216;2023-04-01T15:05:54;13.10;63.70
610;DHT22;292;48.800;9.216;2023-04-01T15:08:25;13.10;63.80
610;DHT22;292;48.800;9.216;2023-04-01T15:11:31;13.20;63.70
610;DHT22;292;48.800;9.216;2023-04-01T15:14:24;13.10;63.40
610;DHT22;292;48.800;9.216;2023-04-01T15:17:03;13.00;63.10
610;DHT22;292;48.800;9.216;2023-04-01T15:19:42;13.00;63.40
610;DHT22;292;48.800;9.216;2023-04-01T15:22:29;13.00;63.40
610;DHT22;292;48.800;9.216;2023-04-01T15:25:15;13.00;63.40
610;DHT22;292;48.800;9.216;2023-04-01T15:27:51;13.10;63.40
610;DHT22;292;48.800;9.216;2023-04-01T15:30:33;13.10;63.40
610;DHT22;292;48.800;9.216;2023-04-01T15:33:22;13.20;63.40
610;DHT22;292;48.800;9.216;2023-04-01T15:35:59;13.10;63.40
610;DHT22;292;48.800;9.216;2023-04-01T15:38:34;13.20;63.40
610;DHT22;292;48.800;9.216;2023-04-01T15:41:13;13.20;63.40
610;DHT22;292;48.800;9.216;2023-04-01T15:43:44;13.10;63.30
610;DHT22;292;48.800;9.216;2023-04-01T15:46:28;13.10;63.60
610;DHT22;292;48.800;9.216;2023-04-01T15:49:04;13.10;63.60
610;DHT22;292;48.800;9.216;2023-04-01T15:51:48;13.10;63.60
610;DHT22;292;48.800;9.216;2023-04-01T15:57:20;13.10;63.60
610;DHT22;292;48.800;9.216;2023-04-01T16:00:11;13.20;63.70
610;DHT22;292;48.800;9.216;2023-04-01T16:02:46;13.10;63.70
610;DHT22;292;48.800;9.216;2023-04-01T16:05:30;13.20;63.70
610;DHT22;292;48.800;9.216;2023-04-01T16:08:19;13.20;63.60
610;DHT22;292;48.800;9.216;2023-04-01T16:11:03;13.20;63.60
610;DHT22;292;48.800;9.216;2023-04-01T16:13:46;13.20;63.70
610;DHT22;292;48.800;9.216;2023-04-01T16:16:26;13.20;63.10
610;DHT22;292;48.800;9.216;2023-04-01T16:19:22;13.20;62.70
610;DHT22;292;48.800;9.216;2023-04-01T16:21:53;13.20;62.80
610;DHT22;292;48.800;9.216;2023-04-01T16:24:28;13.20;62.70
610;DHT22;292;48.800;9.216;2023-04-01T16:27:02;13.20;62.10
610;DHT22;292;48.800;9.216;2023-04-01T16:29:36;13.20;62.10
610;DHT22;292;48.800;9.216;2023-04-01T16:38:11;13.10;62.00
610;DHT22;292;48.800;9.216;2023-04-01T16:40:47;13.10;62.10
610;DHT22;292;48.800;9.216;2023-04-01T16:43:23;13.10;62.10
610;DHT22;292;48.800;9.216;2023-04-01T16:45:57;13.20;62.10
610;DHT22;292;48.800;9.216;2023-04-01T16:48:42;13.20;62.10
610;DHT22;292;48.800;9.216;2023-04-01T16:51:15;13.10;62.10
610;DHT22;292;48.800;9.216;2023-04-01T16:53:48;13.10;62.30
610;DHT22;292;48.800;9.216;2023-04-01T16:56:21;13.20;62.40
610;DHT22;292;48.800;9.216;2023-04-01T16:59:01;13.20;62.50
610;DHT22;292;48.800;9.216;2023-04-01T17:01:33;13.20;62.70
610;DHT22;292;48.800;9.216;2023-04-01T17:04:07;13.20;62.50
610;DHT22;292;48.800;9.216;2023-04-01T17:06:42;13.20;62.70
610;DHT22;292;48.800;9.216;2023-04-01T17:09:24;13.10;63.00
610;DHT22;292;48.800;9.216;2023-04-01T17:11:59;13.20;63.10
610;DHT22;292;48.800;9.216;2023-04-01T17:14:35;13.10;63.30
610;DHT22;292;48.800;9.216;2023-04-01T17:17:31;13.10;63.60
610;DHT22;292;48.800;9.216;2023-04-01T17:20:11;13.10;63.80
610;DHT22;292;48.800;9.216;2023-04-01T17:22:47;13.00;63.80
610;DHT22;292;48.800;9.216;2023-04-01T17:25:30;13.00;64.30
610;DHT22;292;48.800;9.216;2023-04-01T17:28:09;13.00;64.30
610;DHT22;292;48.800;9.216;2023-04-01T17:30:44;13.00;64.30
610;DHT22;292;48.800;9.216;2023-04-01T17:33:31;13.10;64.30
610;DHT22;292;48.800;9.216;2023-04-01T17:36:08;13.00;64.30
610;DHT22;292;48.800;9.216;2023-04-01T17:38:54;13.00;64.60
610;DHT22;292;48.800;9.216;2023-04-01T17:44:29;13.00;64.60
610;DHT22;292;48.800;9.216;2023-04-01T17:47:32;13.10;64.40
610;DHT22;292;48.800;9.216;2023-04-01T17:50:17;13.10;64.30
610;DHT22;292;48.800;9.216;2023-04-01T17:52:59;13.10;64.40
610;DHT22;292;48.800;9.216;2023-04-01T17:55:43;13.10;64.40
610;DHT22;292;48.800;9.216;2023-04-01T17:58:18;13.10;64.30
610;DHT22;292;48.800;9.216;2023-04-01T18:01:08;13.10;64.40
610;DHT22;292;48.800;9.216;2023-04-01T18:03:54;13.10;64.60
610;DHT22;292;48.800;9.216;2023-04-01T18:06:41;13.10;64.70
610;DHT22;292;48.800;9.216;2023-04-01T18:09:24;13.10;65.00
610;DHT22;292;48.800;9.216;2023-04-01T18:11:59;13.10;65.60
610;DHT22;292;48.800;9.216;2023-04-01T18:17:44;13.00;66.90
610;DHT22;292;48.800;9.216;2023-04-01T18:20:33;12.90;67.70
610;DHT22;292;48.800;9.216;2023-04-01T18:23:06;12.90;68.30
610;DHT22;292;48.800;9.216;2023-04-01T18:25:39;12.80;68.90
610;DHT22;292;48.800;9.216;2023-04-01T18:28:22;12.80;69.20
610;DHT22;292;48.800;9.216;2023-04-01T18:30:53;12.80;69.60
610;DHT22;292;48.800;9.216;2023-04-01T18:33:25;12.70;70.20
610;DHT22;292;48.800;9.216;2023-04-01T18:36:03;12.70;70.80
610;DHT22;292;48.800;9.216;2023-04-01T18:38:36;12.70;70.90
610;DHT22;292;48.800;9.216;2023-04-01T18:41:14;12.70;70.90
610;DHT22;292;48.800;9.216;2023-04-01T18:43:53;12.60;71.10
610;DHT22;292;48.800;9.216;2023-04-01T18:46:32;12.60;71.10
610;DHT22;292;48.800;9.216;2023-04-01T18:49:15;12.50;71.20
610;DHT22;292;48.800;9.216;2023-04-01T18:51:47;12.50;71.50
610;DHT22;292;48.800;9.216;2023-04-01T18:54:23;12.50;71.50
610;DHT22;292;48.800;9.216;2023-04-01T18:57:01;12.40;70.90
610;DHT22;292;48.800;9.216;2023-04-01T18:59:34;12.20;70.60
610;DHT22;292;48.800;9.216;2023-04-01T19:02:14;12.20;70.60
610;DHT22;292;48.800;9.216;2023-04-01T19:04:47;12.20;70.80
610;DHT22;292;48.800;9.216;2023-04-01T19:07:41;12.20;70.30
610;DHT22;292;48.800;9.216;2023-04-01T19:10:21;12.10;70.00
610;DHT22;292;48.800;9.216;2023-04-01T19:13:04;12.10;69.90
610;DHT22;292;48.800;9.216;2023-04-01T19:15:37;12.00;69.00
610;DHT22;292;48.800;9.216;2023-04-01T19:21:10;12.00;69.00
610;DHT22;292;48.800;9.216;2023-04-01T19:24:03;11.90;69.00
610;DHT22;292;48.800;9.216;2023-04-01T19:26:39;11.90;69.30